createdAt,value
2016-01-17T00:00:19.822Z,0
2016-01-17T00:01:19.904Z,0
2016-01-17T00:02:19.921Z,0
2016-01-17T00:03:20.035Z,0
2016-01-17T00:04:20.052Z,0
2016-01-17T00:05:20.040Z,0
2016-01-17T00:06:20.136Z,0
2016-01-17T00:07:20.091Z,0
2016-01-17T00:08:20.140Z,0
2016-01-17T00:09:20.191Z,0
2016-01-17T00:10:20.224Z,0
2016-01-17T00:11:20.274Z,0
2016-01-17T00:12:20.323Z,0
2016-01-17T00:13:20.436Z,0
2016-01-17T00:14:20.407Z,0
2016-01-17T00:15:20.410Z,0
2016-01-17T00:16:20.506Z,0
2016-01-17T00:17:20.509Z,0
2016-01-17T00:18:20.574Z,0
2016-01-17T00:19:20.592Z,0
2016-01-17T00:20:20.673Z,0
2016-01-17T00:21:20.675Z,0
2016-01-17T00:22:20.741Z,0
2016-01-17T00:23:20.775Z,0
2016-01-17T00:24:20.793Z,0
2016-01-17T00:25:21.452Z,0
2016-01-17T00:26:20.956Z,0
2016-01-17T00:27:20.973Z,0
2016-01-17T00:28:20.976Z,0
2016-01-17T00:29:21.119Z,0
2016-01-17T00:30:21.075Z,0
2016-01-17T00:31:21.110Z,0
2016-01-17T00:32:21.143Z,0
2016-01-17T00:33:21.177Z,0
2016-01-17T00:34:21.274Z,0
2016-01-17T00:35:21.260Z,0
2016-01-17T00:36:21.185Z,0
2016-01-17T00:37:21.360Z,0
2016-01-17T00:38:21.424Z,0
2016-01-17T00:39:21.474Z,0
2016-01-17T00:40:21.477Z,0
2016-01-17T00:41:21.527Z,0
2016-01-17T00:42:21.592Z,0
2016-01-17T00:43:21.642Z,0
2016-01-17T00:44:21.691Z,0
2016-01-17T00:45:21.694Z,0
2016-01-17T00:46:21.728Z,0
2016-01-17T00:47:21.778Z,0
2016-01-17T00:48:21.826Z,0
2016-01-17T00:49:21.892Z,0
2016-01-17T00:50:21.786Z,0
2016-01-17T00:51:21.945Z,0
2016-01-17T00:52:22.009Z,0
2016-01-17T00:53:22.028Z,0
2016-01-17T00:54:22.092Z,0
2016-01-17T00:55:22.096Z,0
2016-01-17T00:56:22.161Z,0
2016-01-17T00:57:22.180Z,0
2016-01-17T00:58:22.275Z,0
2016-01-17T00:59:22.310Z,0
2016-01-17T01:00:22.328Z,0
2016-01-17T01:01:22.347Z,0
2016-01-17T01:02:22.401Z,0
2016-01-17T01:03:22.496Z,0
2016-01-17T01:04:22.516Z,0
2016-01-17T01:05:22.565Z,0
2016-01-17T01:06:22.567Z,0
2016-01-17T01:07:22.633Z,0
2016-01-17T01:08:22.651Z,0
2016-01-17T01:09:22.701Z,0
2016-01-17T01:10:22.765Z,0
2016-01-17T01:11:22.831Z,0
2016-01-17T01:12:22.834Z,0
2016-01-17T01:13:22.884Z,0
2016-01-17T01:14:22.933Z,0
2016-01-17T01:15:23.014Z,0
2016-01-17T01:16:23.001Z,0
2016-01-17T01:17:23.082Z,0
2016-01-17T01:18:23.084Z,0
2016-01-17T01:19:23.118Z,0
2016-01-17T01:20:23.152Z,0
2016-01-17T01:21:40.373Z,0
2016-01-17T01:22:23.236Z,0
2016-01-17T01:23:23.300Z,0
2016-01-17T01:24:23.319Z,0
2016-01-17T01:25:23.416Z,0
2016-01-17T01:26:23.387Z,0
2016-01-17T01:27:23.468Z,0
2016-01-17T01:28:23.517Z,0
2016-01-17T01:29:23.566Z,0
2016-01-17T01:30:23.648Z,0
2016-01-17T01:31:23.635Z,0
2016-01-17T01:32:23.715Z,0
2016-01-17T01:33:23.718Z,0
2016-01-17T01:34:23.752Z,0
2016-01-17T01:35:23.802Z,0
2016-01-17T01:36:23.946Z,0
2016-01-17T01:37:23.963Z,0
2016-01-17T01:38:23.760Z,0
2016-01-17T01:39:23.983Z,0
2016-01-17T01:40:24.001Z,0
2016-01-17T01:41:24.097Z,0
2016-01-17T01:42:24.068Z,0
2016-01-17T01:43:24.118Z,0
2016-01-17T01:44:24.152Z,0
2016-01-17T01:45:24.248Z,0
2016-01-17T01:46:24.236Z,0
2016-01-17T01:47:24.363Z,0
2016-01-17T01:48:24.366Z,0
2016-01-17T01:49:24.432Z,0
2016-01-17T01:50:24.449Z,0
2016-01-17T01:51:24.500Z,0
2016-01-17T01:52:24.503Z,0
2016-01-17T01:53:24.552Z,0
2016-01-17T01:54:24.618Z,0
2016-01-17T01:55:24.621Z,0
2016-01-17T01:56:24.749Z,0
2016-01-17T01:57:24.798Z,0
2016-01-17T01:58:24.801Z,0
2016-01-17T01:59:24.804Z,0
2016-01-17T02:00:24.931Z,0
2016-01-17T02:01:24.902Z,0
2016-01-17T02:02:24.765Z,0
2016-01-17T02:03:24.955Z,0
2016-01-17T02:04:25.036Z,0
2016-01-17T02:05:25.038Z,0
2016-01-17T02:06:25.151Z,0
2016-01-17T02:07:25.247Z,0
2016-01-17T02:08:25.265Z,0
2016-01-17T02:09:25.268Z,0
2016-01-17T02:10:25.301Z,0
2016-01-17T02:11:25.274Z,0
2016-01-17T02:12:25.448Z,0
2016-01-17T02:13:25.451Z,0
2016-01-17T02:14:25.547Z,0
2016-01-17T02:15:25.566Z,0
2016-01-17T02:16:25.553Z,0
2016-01-17T02:17:25.633Z,0
2016-01-17T02:18:25.620Z,0
2016-01-17T02:19:25.686Z,0
2016-01-17T02:20:25.736Z,0
2016-01-17T02:21:25.706Z,0
2016-01-17T02:22:25.850Z,0
2016-01-17T02:23:25.836Z,0
2016-01-17T02:24:25.855Z,0
2016-01-17T02:25:25.983Z,0
2016-01-17T02:26:25.908Z,0
2016-01-17T02:27:25.988Z,0
2016-01-17T02:28:26.116Z,0
2016-01-17T02:29:26.135Z,0
2016-01-17T02:30:26.184Z,0
2016-01-17T02:31:26.202Z,0
2016-01-17T02:32:26.252Z,0
2016-01-17T02:33:26.255Z,0
2016-01-17T02:34:26.273Z,0
2016-01-17T02:35:26.369Z,0
2016-01-17T02:36:26.434Z,0
2016-01-17T02:37:26.468Z,0
2016-01-17T02:38:26.502Z,0
2016-01-17T02:39:26.567Z,0
2016-01-17T02:40:26.539Z,0
2016-01-17T02:41:26.604Z,0
2016-01-17T02:42:26.638Z,0
2016-01-17T02:43:26.813Z,0
2016-01-17T02:44:26.722Z,0
2016-01-17T02:45:26.771Z,0
2016-01-17T02:46:26.743Z,0
2016-01-17T02:47:26.964Z,0
2016-01-17T02:48:26.842Z,0
2016-01-17T02:49:26.859Z,0
2016-01-17T02:50:26.909Z,0
2016-01-17T02:51:26.959Z,0
2016-01-17T02:52:26.993Z,0
2016-01-17T02:53:27.028Z,0
2016-01-17T02:54:27.061Z,0
2016-01-17T02:55:27.126Z,0
2016-01-17T02:56:27.145Z,0
2016-01-17T02:57:27.211Z,0
2016-01-17T02:58:27.275Z,0
2016-01-17T02:59:27.278Z,0
2016-01-17T03:00:27.344Z,0
2016-01-17T03:01:27.361Z,0
2016-01-17T03:02:27.427Z,0
2016-01-17T03:03:27.570Z,0
2016-01-17T03:04:27.650Z,0
2016-01-17T03:05:27.716Z,0
2016-01-17T03:06:27.609Z,0
2016-01-17T03:07:27.675Z,0
2016-01-17T03:08:27.708Z,0
2016-01-17T03:09:27.758Z,0
2016-01-17T03:10:27.776Z,0
2016-01-17T03:11:27.794Z,0
2016-01-17T03:12:27.891Z,0
2016-01-17T03:13:27.893Z,0
2016-01-17T03:14:27.959Z,0
2016-01-17T03:15:27.993Z,0
2016-01-17T03:16:27.995Z,0
2016-01-17T03:17:28.092Z,0
2016-01-17T03:18:28.079Z,0
2016-01-17T03:19:28.222Z,0
2016-01-17T03:20:28.193Z,0
2016-01-17T03:21:28.259Z,0
2016-01-17T03:22:28.230Z,0
2016-01-17T03:23:28.113Z,0
2016-01-17T03:24:28.820Z,0
2016-01-17T03:25:28.540Z,0
2016-01-17T03:26:28.669Z,0
2016-01-17T03:27:28.626Z,0
2016-01-17T03:28:28.707Z,0
2016-01-17T03:29:29.147Z,0
2016-01-17T03:30:28.710Z,0
2016-01-17T03:31:28.619Z,0
2016-01-17T03:32:28.683Z,0
2016-01-17T03:33:28.905Z,0
2016-01-17T03:34:28.735Z,0
2016-01-17T03:35:28.894Z,0
2016-01-17T03:36:29.054Z,0
2016-01-17T03:37:28.979Z,0
2016-01-17T03:38:28.965Z,0
2016-01-17T03:39:28.968Z,0
2016-01-17T03:40:29.251Z,0
2016-01-17T03:41:29.036Z,0
2016-01-17T03:42:29.087Z,0
2016-01-17T03:43:29.183Z,0
2016-01-17T03:44:29.170Z,0
2016-01-17T03:45:29.267Z,0
2016-01-17T03:46:29.254Z,0
2016-01-17T03:47:29.366Z,0
2016-01-17T03:48:29.431Z,0
2016-01-17T03:49:29.449Z,0
2016-01-17T03:50:29.483Z,0
2016-01-17T03:51:29.439Z,0
2016-01-17T03:52:29.849Z,0
2016-01-17T03:53:29.694Z,0
2016-01-17T03:54:29.729Z,0
2016-01-17T03:55:29.685Z,0
2016-01-17T03:56:29.672Z,0
2016-01-17T03:57:29.800Z,0
2016-01-17T03:58:29.771Z,0
2016-01-17T03:59:29.805Z,0
2016-01-17T04:00:29.918Z,0
2016-01-17T04:01:29.935Z,0
2016-01-17T04:02:29.984Z,0
2016-01-17T04:03:30.004Z,0
2016-01-17T04:04:30.007Z,0
2016-01-17T04:05:30.102Z,0
2016-01-17T04:06:30.121Z,0
2016-01-17T04:07:30.170Z,0
2016-01-17T04:08:30.189Z,0
2016-01-17T04:09:30.223Z,0
2016-01-17T04:10:30.257Z,0
2016-01-17T04:11:30.290Z,0
2016-01-17T04:12:30.418Z,0
2016-01-17T04:13:30.483Z,0
2016-01-17T04:14:30.439Z,0
2016-01-17T04:15:30.489Z,0
2016-01-17T04:16:30.554Z,0
2016-01-17T04:17:30.557Z,0
2016-01-17T04:18:30.825Z,0
2016-01-17T04:19:30.734Z,0
2016-01-17T04:20:30.659Z,0
2016-01-17T04:21:30.708Z,0
2016-01-17T04:22:30.758Z,0
2016-01-17T04:23:30.854Z,0
2016-01-17T04:24:30.872Z,0
2016-01-17T04:25:30.922Z,0
2016-01-17T04:26:30.941Z,0
2016-01-17T04:27:30.958Z,0
2016-01-17T04:28:31.055Z,0
2016-01-17T04:29:31.105Z,0
2016-01-17T04:30:31.091Z,0
2016-01-17T04:31:31.172Z,0
2016-01-17T04:32:31.207Z,0
2016-01-17T04:33:31.178Z,0
2016-01-17T04:34:31.291Z,0
2016-01-17T04:35:30.558Z,0
2016-01-17T04:36:31.342Z,0
2016-01-17T04:37:31.392Z,0
2016-01-17T04:38:31.396Z,0
2016-01-17T04:39:31.476Z,0
2016-01-17T04:40:31.510Z,0
2016-01-17T04:41:31.543Z,0
2016-01-17T04:42:31.609Z,0
2016-01-17T04:43:31.611Z,0
2016-01-17T04:44:31.708Z,0
2016-01-17T04:45:31.695Z,0
2016-01-17T04:46:31.760Z,0
2016-01-17T04:47:31.934Z,0
2016-01-17T04:48:31.812Z,0
2016-01-17T04:49:31.925Z,0
2016-01-17T04:50:32.098Z,0
2016-01-17T04:51:31.942Z,0
2016-01-17T04:52:32.040Z,0
2016-01-17T04:53:32.058Z,0
2016-01-17T04:54:32.075Z,0
2016-01-17T04:55:32.313Z,0
2016-01-17T04:56:32.160Z,0
2016-01-17T04:57:32.194Z,0
2016-01-17T04:58:32.306Z,0
2016-01-17T04:59:32.325Z,0
2016-01-17T05:00:32.359Z,0
2016-01-17T05:01:32.362Z,0
2016-01-17T05:02:32.412Z,0
2016-01-17T05:03:32.445Z,0
2016-01-17T05:04:32.510Z,0
2016-01-17T05:05:32.513Z,0
2016-01-17T05:06:32.626Z,0
2016-01-17T05:07:32.644Z,0
2016-01-17T05:08:32.693Z,0
2016-01-17T05:09:32.696Z,0
2016-01-17T05:10:32.761Z,0
2016-01-17T05:11:32.764Z,0
2016-01-17T05:12:32.797Z,0
2016-01-17T05:13:32.863Z,0
2016-01-17T05:14:32.912Z,0
2016-01-17T05:15:32.978Z,0
2016-01-17T05:16:33.028Z,0
2016-01-17T05:17:33.030Z,0
2016-01-17T05:18:33.096Z,0
2016-01-17T05:19:33.098Z,0
2016-01-17T05:20:33.147Z,0
2016-01-17T05:21:33.181Z,0
2016-01-17T05:22:33.091Z,0
2016-01-17T05:23:33.297Z,0
2016-01-17T05:24:33.341Z,0
2016-01-17T05:25:33.330Z,0
2016-01-17T05:26:33.209Z,0
2016-01-17T05:27:33.402Z,0
2016-01-17T05:28:33.423Z,0
2016-01-17T05:29:33.494Z,0
2016-01-17T05:30:33.507Z,0
2016-01-17T05:31:33.552Z,0
2016-01-17T05:32:33.566Z,0
2016-01-17T05:33:33.612Z,0
2016-01-17T05:34:33.673Z,0
2016-01-17T05:35:33.705Z,0
2016-01-17T05:36:33.737Z,0
2016-01-17T05:37:33.752Z,0
2016-01-17T05:38:33.832Z,0
2016-01-17T05:39:33.849Z,0
2016-01-17T05:40:33.928Z,0
2016-01-17T05:41:33.963Z,0
2016-01-17T05:42:34.010Z,0
2016-01-17T05:43:33.998Z,0
2016-01-17T05:44:34.062Z,0
2016-01-17T05:45:34.081Z,0
2016-01-17T05:46:34.146Z,0
2016-01-17T05:47:34.195Z,0
2016-01-17T05:48:34.229Z,0
2016-01-17T05:49:34.279Z,0
2016-01-17T05:50:34.297Z,0
2016-01-17T05:51:34.362Z,0
2016-01-17T05:52:34.428Z,0
2016-01-17T05:53:34.477Z,0
2016-01-17T05:54:34.479Z,0
2016-01-17T05:55:34.529Z,0
2016-01-17T05:56:34.563Z,0
2016-01-17T05:57:34.582Z,0
2016-01-17T05:58:34.663Z,0
2016-01-17T05:59:34.665Z,0
2016-01-17T06:00:34.855Z,0
2016-01-17T06:01:34.827Z,0
2016-01-17T06:02:34.799Z,0
2016-01-17T06:03:34.879Z,0
2016-01-17T06:04:34.881Z,0
2016-01-17T06:05:34.932Z,0
2016-01-17T06:06:35.027Z,0
2016-01-17T06:07:35.139Z,0
2016-01-17T06:08:34.908Z,0
2016-01-17T06:09:35.098Z,0
2016-01-17T06:10:35.132Z,0
2016-01-17T06:11:35.244Z,0
2016-01-17T06:12:35.528Z,0
2016-01-17T06:13:35.297Z,0
2016-01-17T06:14:35.284Z,0
2016-01-17T06:15:35.348Z,0
2016-01-17T06:16:35.383Z,0
2016-01-17T06:17:35.464Z,0
2016-01-17T06:18:35.497Z,0
2016-01-17T06:19:35.953Z,0
2016-01-17T06:20:35.691Z,0
2016-01-17T06:21:35.615Z,0
2016-01-17T06:22:35.649Z,0
2016-01-17T06:23:35.714Z,0
2016-01-17T06:24:35.763Z,0
2016-01-17T06:25:35.798Z,0
2016-01-17T06:26:35.816Z,0
2016-01-17T06:27:35.943Z,0
2016-01-17T06:28:35.930Z,0
2016-01-17T06:29:36.027Z,0
2016-01-17T06:30:36.124Z,0
2016-01-17T06:31:36.063Z,0
2016-01-17T06:32:36.160Z,0
2016-01-17T06:33:36.193Z,0
2016-01-17T06:34:36.197Z,0
2016-01-17T06:35:36.215Z,0
2016-01-17T06:36:36.280Z,0
2016-01-17T06:37:36.283Z,0
2016-01-17T06:38:36.332Z,0
2016-01-17T06:39:36.210Z,0
2016-01-17T06:40:36.448Z,0
2016-01-17T06:41:36.529Z,0
2016-01-17T06:42:36.593Z,0
2016-01-17T06:43:36.580Z,0
2016-01-17T06:44:36.692Z,0
2016-01-17T06:45:36.664Z,0
2016-01-17T06:46:36.729Z,0
2016-01-17T06:47:36.717Z,0
2016-01-17T06:48:36.703Z,0
2016-01-17T06:49:36.847Z,0
2016-01-17T06:50:36.864Z,0
2016-01-17T06:51:36.884Z,0
2016-01-17T06:52:36.995Z,0
2016-01-17T06:53:36.982Z,0
2016-01-17T06:54:37.157Z,0
2016-01-17T06:55:37.102Z,0
2016-01-17T06:56:37.136Z,0
2016-01-17T06:57:37.170Z,0
2016-01-17T06:58:37.219Z,0
2016-01-17T06:59:37.238Z,0
2016-01-17T07:00:37.318Z,0
2016-01-17T07:01:37.353Z,0
2016-01-17T07:02:37.372Z,0
2016-01-17T07:03:37.500Z,0
2016-01-17T07:04:37.597Z,0
2016-01-17T07:05:37.786Z,0
2016-01-17T07:06:37.539Z,0
2016-01-17T07:07:37.557Z,0
2016-01-17T07:08:37.639Z,0
2016-01-17T07:09:37.720Z,0
2016-01-17T07:10:37.706Z,0
2016-01-17T07:11:37.741Z,4
2016-01-17T07:12:37.805Z,0
2016-01-17T07:13:37.871Z,0
2016-01-17T07:14:37.967Z,0
2016-01-17T07:15:37.955Z,0
2016-01-17T07:16:37.957Z,0
2016-01-17T07:17:38.022Z,0
2016-01-17T07:18:38.071Z,0
2016-01-17T07:19:38.090Z,0
2016-01-17T07:20:38.155Z,0
2016-01-17T07:21:38.205Z,4
2016-01-17T07:22:38.318Z,4
2016-01-17T07:23:38.258Z,0
2016-01-17T07:24:38.291Z,4
2016-01-17T07:25:38.529Z,8
2016-01-17T07:26:38.407Z,8
2016-01-17T07:27:38.487Z,8
2016-01-17T07:28:38.490Z,8
2016-01-17T07:29:38.570Z,8
2016-01-17T07:30:38.574Z,8
2016-01-17T07:31:38.654Z,8
2016-01-17T07:32:38.735Z,8
2016-01-17T07:33:38.753Z,12
2016-01-17T07:34:38.756Z,12
2016-01-17T07:35:38.790Z,12
2016-01-17T07:36:38.839Z,12
2016-01-17T07:37:38.904Z,12
2016-01-17T07:38:38.907Z,12
2016-01-17T07:39:39.051Z,12
2016-01-17T07:40:39.054Z,16
2016-01-17T07:41:39.103Z,16
2016-01-17T07:42:39.122Z,20
2016-01-17T07:43:39.171Z,20
2016-01-17T07:44:39.424Z,20
2016-01-17T07:45:39.380Z,20
2016-01-17T07:46:39.272Z,24
2016-01-17T07:47:39.275Z,24
2016-01-17T07:48:39.341Z,28
2016-01-17T07:49:39.547Z,28
2016-01-17T07:50:39.455Z,28
2016-01-17T07:51:39.459Z,32
2016-01-17T07:52:39.508Z,32
2016-01-17T07:53:39.527Z,32
2016-01-17T07:54:39.592Z,36
2016-01-17T07:55:39.703Z,40
2016-01-17T07:56:39.675Z,40
2016-01-17T07:57:39.725Z,40
2016-01-17T07:58:39.790Z,40
2016-01-17T07:59:39.871Z,40
2016-01-17T08:00:39.873Z,40
2016-01-17T08:01:39.877Z,40
2016-01-17T08:02:39.926Z,40
2016-01-17T08:03:39.991Z,48
2016-01-17T08:04:40.010Z,52
2016-01-17T08:05:40.309Z,56
2016-01-17T08:06:40.124Z,60
2016-01-17T08:07:40.110Z,60
2016-01-17T08:08:40.160Z,68
2016-01-17T08:09:40.195Z,68
2016-01-17T08:10:40.259Z,72
2016-01-17T08:11:40.325Z,76
2016-01-17T08:12:40.484Z,80
2016-01-17T08:13:40.393Z,80
2016-01-17T08:14:40.536Z,80
2016-01-17T08:15:40.461Z,80
2016-01-17T08:16:40.526Z,84
2016-01-17T08:17:40.559Z,88
2016-01-17T08:18:40.594Z,92
2016-01-17T08:19:40.675Z,92
2016-01-17T08:20:40.662Z,92
2016-01-17T08:21:40.727Z,96
2016-01-17T08:22:40.730Z,96
2016-01-17T08:23:40.825Z,88
2016-01-17T08:24:40.860Z,92
2016-01-17T08:25:40.925Z,96
2016-01-17T08:26:40.912Z,100
2016-01-17T08:27:40.961Z,100
2016-01-17T08:28:41.027Z,100
2016-01-17T08:29:41.045Z,100
2016-01-17T08:30:41.094Z,100
2016-01-17T08:31:41.160Z,100
2016-01-17T08:32:41.163Z,104
2016-01-17T08:33:41.244Z,108
2016-01-17T08:34:41.262Z,108
2016-01-17T08:35:41.311Z,104
2016-01-17T08:36:41.360Z,96
2016-01-17T08:37:41.380Z,96
2016-01-17T08:38:41.429Z,104
2016-01-17T08:39:41.479Z,112
2016-01-17T08:40:41.528Z,128
2016-01-17T08:41:41.562Z,132
2016-01-17T08:42:41.596Z,140
2016-01-17T08:43:41.676Z,160
2016-01-17T08:44:41.695Z,188
2016-01-17T08:45:41.745Z,216
2016-01-17T08:46:41.779Z,200
2016-01-17T08:47:41.828Z,208
2016-01-17T08:48:41.862Z,196
2016-01-17T08:49:41.881Z,228
2016-01-17T08:50:41.945Z,220
2016-01-17T08:51:41.979Z,240
2016-01-17T08:52:42.028Z,224
2016-01-17T08:53:42.078Z,228
2016-01-17T08:54:42.144Z,236
2016-01-17T08:55:42.131Z,240
2016-01-17T08:56:42.211Z,248
2016-01-17T08:57:42.262Z,256
2016-01-17T08:58:42.264Z,256
2016-01-17T08:59:42.314Z,228
2016-01-17T09:00:42.394Z,208
2016-01-17T09:01:42.428Z,208
2016-01-17T09:02:42.463Z,188
2016-01-17T09:03:42.496Z,180
2016-01-17T09:04:42.561Z,172
2016-01-17T09:05:42.596Z,172
2016-01-17T09:06:42.644Z,172
2016-01-17T09:07:42.663Z,164
2016-01-17T09:08:42.729Z,168
2016-01-17T09:09:42.731Z,176
2016-01-17T09:10:42.797Z,184
2016-01-17T09:11:42.829Z,200
2016-01-17T09:12:42.864Z,208
2016-01-17T09:13:42.913Z,212
2016-01-17T09:14:42.963Z,220
2016-01-17T09:15:43.043Z,220
2016-01-17T09:16:43.046Z,220
2016-01-17T09:17:43.096Z,212
2016-01-17T09:18:43.098Z,224
2016-01-17T09:19:43.179Z,224
2016-01-17T09:20:43.198Z,208
2016-01-17T09:21:43.264Z,208
2016-01-17T09:22:43.312Z,224
2016-01-17T09:23:43.347Z,228
2016-01-17T09:24:43.381Z,248
2016-01-17T09:25:43.430Z,260
2016-01-17T09:26:43.495Z,288
2016-01-17T09:27:43.498Z,320
2016-01-17T09:28:43.563Z,328
2016-01-17T09:29:43.628Z,320
2016-01-17T09:30:43.647Z,324
2016-01-17T09:31:43.680Z,336
2016-01-17T09:32:43.714Z,344
2016-01-17T09:33:43.764Z,360
2016-01-17T09:34:43.813Z,360
2016-01-17T09:35:43.879Z,368
2016-01-17T09:36:43.897Z,364
2016-01-17T09:37:43.946Z,336
2016-01-17T09:38:43.966Z,320
2016-01-17T09:39:44.030Z,316
2016-01-17T09:40:44.095Z,320
2016-01-17T09:41:44.113Z,344
2016-01-17T09:42:44.148Z,340
2016-01-17T09:43:44.212Z,344
2016-01-17T09:44:44.293Z,356
2016-01-17T09:45:44.262Z,392
2016-01-17T09:46:44.315Z,392
2016-01-17T09:47:44.365Z,396
2016-01-17T09:48:44.414Z,416
2016-01-17T09:49:44.479Z,424
2016-01-17T09:50:44.498Z,444
2016-01-17T09:51:44.859Z,440
2016-01-17T09:52:44.640Z,444
2016-01-17T09:53:44.612Z,448
2016-01-17T09:54:45.599Z,456
2016-01-17T09:55:44.789Z,464
2016-01-17T09:56:44.761Z,456
2016-01-17T09:57:44.780Z,460
2016-01-17T09:58:44.798Z,440
2016-01-17T09:59:44.880Z,448
2016-01-17T10:00:44.914Z,464
2016-01-17T10:01:44.963Z,480
2016-01-17T10:02:44.981Z,484
2016-01-17T10:03:45.046Z,476
2016-01-17T10:04:45.096Z,480
2016-01-17T10:05:45.162Z,480
2016-01-17T10:06:45.227Z,472
2016-01-17T10:07:45.214Z,472
2016-01-17T10:08:45.264Z,508
2016-01-17T10:09:45.282Z,520
2016-01-17T10:10:45.363Z,496
2016-01-17T10:11:45.429Z,476
2016-01-17T10:12:45.447Z,480
2016-01-17T10:13:45.481Z,508
2016-01-17T10:14:45.498Z,488
2016-01-17T10:15:45.579Z,480
2016-01-17T10:16:45.598Z,456
2016-01-17T10:17:45.648Z,416
2016-01-17T10:18:45.697Z,396
2016-01-17T10:19:45.731Z,400
2016-01-17T10:20:45.797Z,384
2016-01-17T10:21:45.831Z,412
2016-01-17T10:22:45.864Z,440
2016-01-17T10:23:45.930Z,420
2016-01-17T10:24:45.948Z,404
2016-01-17T10:25:46.045Z,396
2016-01-17T10:26:46.016Z,392
2016-01-17T10:27:46.081Z,400
2016-01-17T10:28:46.115Z,388
2016-01-17T10:29:46.181Z,360
2016-01-17T10:30:46.182Z,364
2016-01-17T10:31:46.264Z,360
2016-01-17T10:32:46.283Z,344
2016-01-17T10:33:46.316Z,352
2016-01-17T10:34:46.350Z,380
2016-01-17T10:35:46.400Z,412
2016-01-17T10:36:46.449Z,420
2016-01-17T10:37:46.514Z,428
2016-01-17T10:38:46.563Z,488
2016-01-17T10:39:46.582Z,488
2016-01-17T10:40:46.616Z,524
2016-01-17T10:41:46.666Z,544
2016-01-17T10:43:23.309Z,644
2016-01-17T10:43:46.734Z,584
2016-01-17T10:44:46.986Z,592
2016-01-17T10:45:47.067Z,640
2016-01-17T10:46:46.867Z,712
2016-01-17T10:47:46.916Z,740
2016-01-17T10:48:46.966Z,724
2016-01-17T10:49:47.000Z,672
2016-01-17T10:50:47.112Z,596
2016-01-17T10:51:47.068Z,560
2016-01-17T10:52:47.179Z,584
2016-01-17T10:53:47.198Z,696
2016-01-17T10:54:47.216Z,724
2016-01-17T10:55:47.234Z,680
2016-01-17T10:56:47.300Z,636
2016-01-17T10:57:47.333Z,616
2016-01-17T10:58:47.477Z,664
2016-01-17T10:59:47.448Z,696
2016-01-17T11:00:47.466Z,692
2016-01-17T11:01:47.485Z,672
2016-01-17T11:02:47.550Z,688
2016-01-17T11:03:47.491Z,748
2016-01-17T11:04:47.618Z,768
2016-01-17T11:05:47.714Z,772
2016-01-17T11:06:47.717Z,772
2016-01-17T11:07:47.829Z,768
2016-01-17T11:08:47.816Z,756
2016-01-17T11:09:47.850Z,784
2016-01-17T11:10:47.916Z,780
2016-01-17T11:11:47.934Z,764
2016-01-17T11:12:47.983Z,764
2016-01-17T11:13:48.032Z,724
2016-01-17T11:14:48.067Z,704
2016-01-17T11:15:48.085Z,572
2016-01-17T11:16:48.134Z,516
2016-01-17T11:17:48.168Z,556
2016-01-17T11:18:48.234Z,580
2016-01-17T11:19:48.237Z,544
2016-01-17T11:20:48.301Z,548
2016-01-17T11:21:48.351Z,532
2016-01-17T11:22:48.417Z,540
2016-01-17T11:23:48.450Z,508
2016-01-17T11:24:48.484Z,500
2016-01-17T11:25:48.503Z,528
2016-01-17T11:26:48.553Z,564
2016-01-17T11:27:49.227Z,508
2016-01-17T11:28:49.058Z,472
2016-01-17T11:29:48.998Z,436
2016-01-17T11:30:48.781Z,408
2016-01-17T11:31:48.769Z,400
2016-01-17T11:32:48.834Z,392
2016-01-17T11:33:48.852Z,376
2016-01-17T11:34:48.917Z,356
2016-01-17T11:35:48.951Z,344
2016-01-17T11:36:49.016Z,344
2016-01-17T11:37:49.004Z,348
2016-01-17T11:38:49.100Z,340
2016-01-17T11:39:49.102Z,328
2016-01-17T11:40:49.168Z,320
2016-01-17T11:41:49.202Z,320
2016-01-17T11:42:49.251Z,328
2016-01-17T11:43:49.285Z,332
2016-01-17T11:44:49.319Z,332
2016-01-17T11:45:49.401Z,320
2016-01-17T11:46:49.419Z,312
2016-01-17T11:47:49.452Z,304
2016-01-17T11:48:49.502Z,288
2016-01-17T11:49:49.536Z,280
2016-01-17T11:50:49.555Z,276
2016-01-17T11:51:49.604Z,268
2016-01-17T11:52:49.685Z,264
2016-01-17T11:53:49.704Z,260
2016-01-17T11:54:49.737Z,264
2016-01-17T11:55:49.786Z,260
2016-01-17T11:56:49.837Z,252
2016-01-17T11:57:49.870Z,252
2016-01-17T11:58:49.919Z,256
2016-01-17T11:59:49.969Z,264
2016-01-17T12:00:49.987Z,268
2016-01-17T12:01:50.053Z,272
2016-01-17T12:02:50.071Z,284
2016-01-17T12:03:50.120Z,292
2016-01-17T12:04:50.155Z,308
2016-01-17T12:05:50.204Z,328
2016-01-17T12:06:50.253Z,348
2016-01-17T12:07:50.303Z,364
2016-01-17T12:08:50.322Z,376
2016-01-17T12:09:50.355Z,380
2016-01-17T12:10:50.436Z,408
2016-01-17T12:11:50.486Z,440
2016-01-17T12:12:50.536Z,460
2016-01-17T12:13:50.538Z,464
2016-01-17T12:14:50.587Z,468
2016-01-17T12:15:50.653Z,464
2016-01-17T12:16:50.671Z,460
2016-01-17T12:17:50.736Z,460
2016-01-17T12:18:50.802Z,448
2016-01-17T12:19:50.898Z,444
2016-01-17T12:20:50.837Z,456
2016-01-17T12:21:50.888Z,464
2016-01-17T12:22:50.937Z,448
2016-01-17T12:23:50.971Z,444
2016-01-17T12:24:51.020Z,436
2016-01-17T12:25:51.070Z,428
2016-01-17T12:26:51.151Z,400
2016-01-17T12:27:51.138Z,380
2016-01-17T12:28:51.187Z,368
2016-01-17T12:29:51.237Z,368
2016-01-17T12:30:51.255Z,364
2016-01-17T12:31:51.320Z,372
2016-01-17T12:32:51.339Z,372
2016-01-17T12:33:51.420Z,364
2016-01-17T12:34:51.454Z,372
2016-01-17T12:35:51.503Z,360
2016-01-17T12:36:51.538Z,340
2016-01-17T12:37:51.572Z,332
2016-01-17T12:38:51.606Z,348
2016-01-17T12:39:51.685Z,368
2016-01-17T12:40:51.720Z,372
2016-01-17T12:41:51.769Z,380
2016-01-17T12:42:51.788Z,388
2016-01-17T12:43:51.838Z,388
2016-01-17T12:44:51.888Z,392
2016-01-17T12:45:51.749Z,396
2016-01-17T12:46:51.940Z,384
2016-01-17T12:47:52.004Z,368
2016-01-17T12:48:52.054Z,348
2016-01-17T12:49:52.119Z,324
2016-01-17T12:50:52.231Z,296
2016-01-17T12:51:52.234Z,304
2016-01-17T12:52:52.237Z,320
2016-01-17T12:53:52.287Z,336
2016-01-17T12:54:52.304Z,336
2016-01-17T12:55:52.401Z,328
2016-01-17T12:56:52.420Z,368
2016-01-17T12:57:52.500Z,428
2016-01-17T12:58:52.550Z,472
2016-01-17T12:59:52.568Z,464
2016-01-17T13:00:52.680Z,436
2016-01-17T13:01:52.636Z,396
2016-01-17T13:02:52.561Z,360
2016-01-17T13:03:52.755Z,328
2016-01-17T13:04:52.899Z,316
2016-01-17T13:05:52.808Z,300
2016-01-17T13:06:52.873Z,292
2016-01-17T13:07:52.922Z,272
2016-01-17T13:08:52.910Z,268
2016-01-17T13:09:52.928Z,260
2016-01-17T13:10:53.008Z,260
2016-01-17T13:11:53.137Z,252
2016-01-17T13:12:53.139Z,248
2016-01-17T13:13:53.111Z,244
2016-01-17T13:14:53.207Z,244
2016-01-17T13:15:53.257Z,244
2016-01-17T13:16:53.244Z,240
2016-01-17T13:17:53.371Z,236
2016-01-17T13:18:53.421Z,244
2016-01-17T13:19:53.424Z,248
2016-01-17T13:20:53.442Z,252
2016-01-17T13:21:53.460Z,260
2016-01-17T13:22:53.557Z,264
2016-01-17T13:23:53.544Z,268
2016-01-17T13:24:53.640Z,260
2016-01-17T13:25:53.721Z,256
2016-01-17T13:26:53.677Z,244
2016-01-17T13:27:53.712Z,232
2016-01-17T13:28:53.745Z,228
2016-01-17T13:29:53.842Z,232
2016-01-17T13:30:53.860Z,232
2016-01-17T13:31:53.940Z,224
2016-01-17T13:32:53.911Z,216
2016-01-17T13:33:53.946Z,204
2016-01-17T13:34:53.964Z,192
2016-01-17T13:35:54.030Z,176
2016-01-17T13:36:54.078Z,152
2016-01-17T13:37:54.113Z,136
2016-01-17T13:38:54.178Z,128
2016-01-17T13:39:54.196Z,128
2016-01-17T13:40:54.230Z,136
2016-01-17T13:41:54.280Z,144
2016-01-17T13:42:54.344Z,152
2016-01-17T13:43:54.394Z,156
2016-01-17T13:44:54.397Z,160
2016-01-17T13:45:54.447Z,164
2016-01-17T13:46:54.496Z,172
2016-01-17T13:47:54.562Z,172
2016-01-17T13:48:54.752Z,176
2016-01-17T13:49:54.693Z,188
2016-01-17T13:50:54.757Z,192
2016-01-17T13:51:54.710Z,200
2016-01-17T13:52:54.779Z,204
2016-01-17T13:53:54.813Z,208
2016-01-17T13:54:54.846Z,212
2016-01-17T13:55:54.880Z,212
2016-01-17T13:56:54.946Z,208
2016-01-17T13:57:54.979Z,196
2016-01-17T13:58:55.045Z,192
2016-01-17T13:59:55.062Z,192
2016-01-17T14:00:55.097Z,196
2016-01-17T14:01:55.131Z,204
2016-01-17T14:02:55.212Z,208
2016-01-17T14:03:55.215Z,216
2016-01-17T14:04:55.247Z,220
2016-01-17T14:05:55.298Z,228
2016-01-17T14:06:55.378Z,232
2016-01-17T14:07:55.397Z,228
2016-01-17T14:08:55.414Z,212
2016-01-17T14:09:55.527Z,196
2016-01-17T14:10:55.530Z,184
2016-01-17T14:11:55.564Z,180
2016-01-17T14:12:55.644Z,172
2016-01-17T14:13:55.647Z,168
2016-01-17T14:14:55.697Z,160
2016-01-17T14:15:55.747Z,160
2016-01-17T14:16:55.843Z,164
2016-01-17T14:18:55.894Z,160
